sensor_id;sensor_type;location;lat;lon;timestamp;temperature;humidity
5899;DHT22;2975;50.956;6.962;2023-10-08T00:00:46;18.70;99.90
5899;DHT22;2975;50.956;6.962;2023-10-08T00:03:13;18.70;99.90
5899;DHT22;2975;50.956;6.962;2023-10-08T00:05:39;18.70;99.90
5899;DHT22;2975;50.956;6.962;2023-10-08T00:08:06;18.70;99.90
5899;DHT22;2975;50.956;6.962;2023-10-08T00:10:36;18.60;99.90
5899;DHT22;2975;50.956;6.962;2023-10-08T00:13:04;18.60;99.90
5899;DHT22;2975;50.956;6.962;2023-10-08T00:15:32;18.60;99.90
5899;DHT22;2975;50.956;6.962;2023-10-08T00:17:57;18.60;99.90
5899;DHT22;2975;50.956;6.962;2023-10-08T00:20:24;18.50;99.90
5899;DHT22;2975;50.956;6.962;2023-10-08T00:23:01;18.40;99.90
5899;DHT22;2975;50.956;6.962;2023-10-08T00:25:29;18.30;99.90
5899;DHT22;2975;50.956;6.962;2023-10-08T00:27:59;18.20;99.90
5899;DHT22;2975;50.956;6.962;2023-10-08T00:30:27;18.10;99.90
5899;DHT22;2975;50.956;6.962;2023-10-08T00:32:53;18.10;99.90
5899;DHT22;2975;50.956;6.962;2023-10-08T00:35:18;18.00;99.90
5899;DHT22;2975;50.956;6.962;2023-10-08T00:37:46;17.90;99.90
5899;DHT22;2975;50.956;6.962;2023-10-08T00:40:14;17.90;99.90
5899;DHT22;2975;50.956;6.962;2023-10-08T00:42:44;17.90;99.90
5899;DHT22;2975;50.956;6.962;2023-10-08T00:45:13;17.80;99.90
5899;DHT22;2975;50.956;6.962;2023-10-08T00:47:41;17.80;99.90
5899;DHT22;2975;50.956;6.962;2023-10-08T00:50:12;17.80;99.90
5899;DHT22;2975;50.956;6.962;2023-10-08T00:52:47;17.70;99.90
5899;DHT22;2975;50.956;6.962;2023-10-08T00:55:26;17.70;99.90
5899;DHT22;2975;50.956;6.962;2023-10-08T00:57:58;17.70;99.90
5899;DHT22;2975;50.956;6.962;2023-10-08T01:00:27;17.70;99.90
5899;DHT22;2975;50.956;6.962;2023-10-08T01:03:04;17.60;99.90
5899;DHT22;2975;50.956;6.962;2023-10-08T01:05:40;17.70;99.90
5899;DHT22;2975;50.956;6.962;2023-10-08T01:08:12;17.70;99.90
5899;DHT22;2975;50.956;6.962;2023-10-08T01:10:43;17.60;99.90
5899;DHT22;2975;50.956;6.962;2023-10-08T01:13:10;17.60;99.90
5899;DHT22;2975;50.956;6.962;2023-10-08T01:15:46;17.50;99.90
5899;DHT22;2975;50.956;6.962;2023-10-08T01:18:15;17.50;99.90
5899;DHT22;2975;50.956;6.962;2023-10-08T01:20:43;17.40;99.90
5899;DHT22;2975;50.956;6.962;2023-10-08T01:23:18;17.30;99.90
5899;DHT22;2975;50.956;6.962;2023-10-08T01:25:49;17.20;99.90
5899;DHT22;2975;50.956;6.962;2023-10-08T01:28:18;17.10;99.90
5899;DHT22;2975;50.956;6.962;2023-10-08T01:30:54;17.00;99.90
5899;DHT22;2975;50.956;6.962;2023-10-08T01:33:21;17.00;99.90
5899;DHT22;2975;50.956;6.962;2023-10-08T01:35:54;16.90;99.90
5899;DHT22;2975;50.956;6.962;2023-10-08T01:38:19;16.80;99.90
5899;DHT22;2975;50.956;6.962;2023-10-08T01:40:49;16.80;99.90
5899;DHT22;2975;50.956;6.962;2023-10-08T01:43:19;16.70;99.90
5899;DHT22;2975;50.956;6.962;2023-10-08T01:45:46;16.60;99.90
5899;DHT22;2975;50.956;6.962;2023-10-08T01:48:17;16.60;99.90
5899;DHT22;2975;50.956;6.962;2023-10-08T01:50:56;16.50;99.90
5899;DHT22;2975;50.956;6.962;2023-10-08T01:53:27;16.40;99.90
5899;DHT22;2975;50.956;6.962;2023-10-08T01:55:53;16.40;99.90
5899;DHT22;2975;50.956;6.962;2023-10-08T01:58:21;16.30;99.90
5899;DHT22;2975;50.956;6.962;2023-10-08T02:00:49;16.30;99.90
5899;DHT22;2975;50.956;6.962;2023-10-08T02:03:16;16.20;99.90
5899;DHT22;2975;50.956;6.962;2023-10-08T02:05:44;16.20;99.90
5899;DHT22;2975;50.956;6.962;2023-10-08T02:08:14;16.10;99.90
5899;DHT22;2975;50.956;6.962;2023-10-08T02:10:42;16.10;99.90
5899;DHT22;2975;50.956;6.962;2023-10-08T02:13:10;16.00;99.90
5899;DHT22;2975;50.956;6.962;2023-10-08T02:15:48;16.00;99.90
5899;DHT22;2975;50.956;6.962;2023-10-08T02:18:15;16.00;99.90
5899;DHT22;2975;50.956;6.962;2023-10-08T02:20:41;16.00;99.90
5899;DHT22;2975;50.956;6.962;2023-10-08T02:23:07;16.00;99.90
5899;DHT22;2975;50.956;6.962;2023-10-08T02:25:32;16.00;99.90
5899;DHT22;2975;50.956;6.962;2023-10-08T02:28:04;16.00;99.90
5899;DHT22;2975;50.956;6.962;2023-10-08T02:30:30;16.00;99.90
5899;DHT22;2975;50.956;6.962;2023-10-08T02:32:56;15.90;99.90
5899;DHT22;2975;50.956;6.962;2023-10-08T02:35:23;15.90;99.90
5899;DHT22;2975;50.956;6.962;2023-10-08T02:37:49;15.90;99.90
5899;DHT22;2975;50.956;6.962;2023-10-08T02:40:14;15.90;99.90
5899;DHT22;2975;50.956;6.962;2023-10-08T02:43:06;15.90;99.90
5899;DHT22;2975;50.956;6.962;2023-10-08T02:45:34;15.90;99.90
5899;DHT22;2975;50.956;6.962;2023-10-08T02:48:05;16.00;99.90
5899;DHT22;2975;50.956;6.962;2023-10-08T02:50:40;16.10;99.90
5899;DHT22;2975;50.956;6.962;2023-10-08T02:53:07;16.20;99.90
5899;DHT22;2975;50.956;6.962;2023-10-08T02:55:51;16.20;99.90
5899;DHT22;2975;50.956;6.962;2023-10-08T02:58:17;16.20;99.90
5899;DHT22;2975;50.956;6.962;2023-10-08T03:00:48;16.30;99.90
5899;DHT22;2975;50.956;6.962;2023-10-08T03:03:17;16.30;99.90
5899;DHT22;2975;50.956;6.962;2023-10-08T03:05:51;16.30;99.90
5899;DHT22;2975;50.956;6.962;2023-10-08T03:08:18;16.30;99.90
5899;DHT22;2975;50.956;6.962;2023-10-08T03:10:48;16.40;99.90
5899;DHT22;2975;50.956;6.962;2023-10-08T03:13:16;16.40;99.90
5899;DHT22;2975;50.956;6.962;2023-10-08T03:15:42;16.40;99.90
5899;DHT22;2975;50.956;6.962;2023-10-08T03:18:27;16.30;99.90
5899;DHT22;2975;50.956;6.962;2023-10-08T03:21:03;16.30;99.90
5899;DHT22;2975;50.956;6.962;2023-10-08T03:23:30;16.30;99.90
5899;DHT22;2975;50.956;6.962;2023-10-08T03:26:00;16.30;99.90
5899;DHT22;2975;50.956;6.962;2023-10-08T03:28:34;16.30;99.90
5899;DHT22;2975;50.956;6.962;2023-10-08T03:31:01;16.20;99.90
5899;DHT22;2975;50.956;6.962;2023-10-08T03:33:43;16.20;99.90
5899;DHT22;2975;50.956;6.962;2023-10-08T03:36:14;16.30;99.90
5899;DHT22;2975;50.956;6.962;2023-10-08T03:38:49;16.30;99.90
5899;DHT22;2975;50.956;6.962;2023-10-08T03:41:21;16.30;99.90
5899;DHT22;2975;50.956;6.962;2023-10-08T03:43:53;16.30;99.90
5899;DHT22;2975;50.956;6.962;2023-10-08T03:46:21;16.30;99.90
5899;DHT22;2975;50.956;6.962;2023-10-08T03:48:49;16.30;99.90
5899;DHT22;2975;50.956;6.962;2023-10-08T03:51:20;16.30;99.90
5899;DHT22;2975;50.956;6.962;2023-10-08T03:53:47;16.30;99.90
5899;DHT22;2975;50.956;6.962;2023-10-08T03:56:32;16.30;99.90
5899;DHT22;2975;50.956;6.962;2023-10-08T03:59:00;16.40;99.90
5899;DHT22;2975;50.956;6.962;2023-10-08T04:01:29;16.40;99.90
5899;DHT22;2975;50.956;6.962;2023-10-08T04:03:58;16.30;99.90
5899;DHT22;2975;50.956;6.962;2023-10-08T04:06:25;16.30;99.90
5899;DHT22;2975;50.956;6.962;2023-10-08T04:08:56;16.20;99.90
5899;DHT22;2975;50.956;6.962;2023-10-08T04:11:31;16.20;99.90
5899;DHT22;2975;50.956;6.962;2023-10-08T04:14:00;16.20;99.90
5899;DHT22;2975;50.956;6.962;2023-10-08T04:16:31;16.20;99.90
5899;DHT22;2975;50.956;6.962;2023-10-08T04:19:02;16.20;99.90
5899;DHT22;2975;50.956;6.962;2023-10-08T04:21:29;16.20;99.90
5899;DHT22;2975;50.956;6.962;2023-10-08T04:23:55;16.20;99.90
5899;DHT22;2975;50.956;6.962;2023-10-08T04:26:23;16.20;99.90
5899;DHT22;2975;50.956;6.962;2023-10-08T04:28:51;16.20;99.90
5899;DHT22;2975;50.956;6.962;2023-10-08T04:31:20;16.20;99.90
5899;DHT22;2975;50.956;6.962;2023-10-08T04:33:50;16.20;99.90
5899;DHT22;2975;50.956;6.962;2023-10-08T04:36:16;16.20;99.90
5899;DHT22;2975;50.956;6.962;2023-10-08T04:38:45;16.20;99.90
5899;DHT22;2975;50.956;6.962;2023-10-08T04:41:14;16.20;99.90
5899;DHT22;2975;50.956;6.962;2023-10-08T04:43:44;16.10;99.90
5899;DHT22;2975;50.956;6.962;2023-10-08T04:46:10;16.10;99.90
5899;DHT22;2975;50.956;6.962;2023-10-08T04:48:48;16.00;99.90
5899;DHT22;2975;50.956;6.962;2023-10-08T04:51:15;16.00;99.90
5899;DHT22;2975;50.956;6.962;2023-10-08T04:53:43;16.00;99.90
5899;DHT22;2975;50.956;6.962;2023-10-08T04:56:12;16.00;99.90
5899;DHT22;2975;50.956;6.962;2023-10-08T04:58:47;15.90;99.90
5899;DHT22;2975;50.956;6.962;2023-10-08T05:01:14;15.90;99.90
5899;DHT22;2975;50.956;6.962;2023-10-08T05:03:53;15.90;99.90
5899;DHT22;2975;50.956;6.962;2023-10-08T05:06:26;15.90;99.90
5899;DHT22;2975;50.956;6.962;2023-10-08T05:09:05;15.90;99.90
5899;DHT22;2975;50.956;6.962;2023-10-08T05:11:50;15.90;99.90
5899;DHT22;2975;50.956;6.962;2023-10-08T05:14:22;15.90;99.90
5899;DHT22;2975;50.956;6.962;2023-10-08T05:17:01;15.90;99.90
5899;DHT22;2975;50.956;6.962;2023-10-08T05:19:46;15.90;99.90
5899;DHT22;2975;50.956;6.962;2023-10-08T05:22:45;15.90;99.90
5899;DHT22;2975;50.956;6.962;2023-10-08T05:25:13;15.80;99.90
5899;DHT22;2975;50.956;6.962;2023-10-08T05:27:45;15.80;99.90
5899;DHT22;2975;50.956;6.962;2023-10-08T05:30:11;15.70;99.90
5899;DHT22;2975;50.956;6.962;2023-10-08T05:32:41;15.60;99.90
5899;DHT22;2975;50.956;6.962;2023-10-08T05:35:25;15.50;99.90
5899;DHT22;2975;50.956;6.962;2023-10-08T05:38:21;15.40;99.90
5899;DHT22;2975;50.956;6.962;2023-10-08T05:40:49;15.40;99.90
5899;DHT22;2975;50.956;6.962;2023-10-08T05:46:12;15.30;99.90
5899;DHT22;2975;50.956;6.962;2023-10-08T05:51:35;15.30;99.90
5899;DHT22;2975;50.956;6.962;2023-10-08T05:54:22;15.30;99.90
5899;DHT22;2975;50.956;6.962;2023-10-08T06:02:21;15.30;99.90
5899;DHT22;2975;50.956;6.962;2023-10-08T06:05:08;15.30;99.90
5899;DHT22;2975;50.956;6.962;2023-10-08T06:07:43;15.40;99.90
5899;DHT22;2975;50.956;6.962;2023-10-08T06:10:19;15.50;99.90
5899;DHT22;2975;50.956;6.962;2023-10-08T06:13:06;15.50;99.90
5899;DHT22;2975;50.956;6.962;2023-10-08T06:15:39;15.60;99.90
5899;DHT22;2975;50.956;6.962;2023-10-08T06:18:25;15.70;99.90
5899;DHT22;2975;50.956;6.962;2023-10-08T06:21:02;15.80;99.90
5899;DHT22;2975;50.956;6.962;2023-10-08T06:23:35;15.90;99.90
5899;DHT22;2975;50.956;6.962;2023-10-08T06:26:02;16.00;99.90
5899;DHT22;2975;50.956;6.962;2023-10-08T06:28:50;16.10;99.90
5899;DHT22;2975;50.956;6.962;2023-10-08T06:31:22;16.20;99.90
5899;DHT22;2975;50.956;6.962;2023-10-08T06:33:50;16.30;99.90
5899;DHT22;2975;50.956;6.962;2023-10-08T06:36:16;16.30;99.90
5899;DHT22;2975;50.956;6.962;2023-10-08T06:38:43;16.40;99.90
5899;DHT22;2975;50.956;6.962;2023-10-08T06:41:13;16.50;99.90
5899;DHT22;2975;50.956;6.962;2023-10-08T06:43:39;16.50;99.90
5899;DHT22;2975;50.956;6.962;2023-10-08T06:46:05;16.50;99.90
5899;DHT22;2975;50.956;6.962;2023-10-08T06:48:38;16.60;99.90
5899;DHT22;2975;50.956;6.962;2023-10-08T06:51:08;16.60;99.90
5899;DHT22;2975;50.956;6.962;2023-10-08T06:53:39;16.70;99.90
5899;DHT22;2975;50.956;6.962;2023-10-08T06:56:04;16.70;99.90
5899;DHT22;2975;50.956;6.962;2023-10-08T06:58:31;16.80;99.90
5899;DHT22;2975;50.956;6.962;2023-10-08T07:01:01;16.90;99.90
5899;DHT22;2975;50.956;6.962;2023-10-08T07:03:36;16.90;99.90
5899;DHT22;2975;50.956;6.962;2023-10-08T07:06:03;17.00;99.90
5899;DHT22;2975;50.956;6.962;2023-10-08T07:08:42;17.00;99.90
5899;DHT22;2975;50.956;6.962;2023-10-08T07:11:08;17.00;99.90
5899;DHT22;2975;50.956;6.962;2023-10-08T07:13:37;17.10;99.90
5899;DHT22;2975;50.956;6.962;2023-10-08T07:16:05;17.20;99.90
5899;DHT22;2975;50.956;6.962;2023-10-08T07:18:31;17.30;99.90
5899;DHT22;2975;50.956;6.962;2023-10-08T07:20:59;17.40;99.90
5899;DHT22;2975;50.956;6.962;2023-10-08T07:23:29;17.50;99.90
5899;DHT22;2975;50.956;6.962;2023-10-08T07:25:57;17.60;99.90
5899;DHT22;2975;50.956;6.962;2023-10-08T07:28:44;17.60;99.90
5899;DHT22;2975;50.956;6.962;2023-10-08T07:31:14;17.60;99.90
5899;DHT22;2975;50.956;6.962;2023-10-08T07:33:44;17.70;99.90
5899;DHT22;2975;50.956;6.962;2023-10-08T07:36:12;17.70;99.90
5899;DHT22;2975;50.956;6.962;2023-10-08T07:38:42;17.80;99.90
5899;DHT22;2975;50.956;6.962;2023-10-08T07:41:11;17.90;99.90
5899;DHT22;2975;50.956;6.962;2023-10-08T07:43:41;17.90;99.90
5899;DHT22;2975;50.956;6.962;2023-10-08T07:46:12;18.00;99.90
5899;DHT22;2975;50.956;6.962;2023-10-08T07:48:40;18.00;99.90
5899;DHT22;2975;50.956;6.962;2023-10-08T07:51:09;18.10;99.90
5899;DHT22;2975;50.956;6.962;2023-10-08T07:53:34;18.20;99.90
5899;DHT22;2975;50.956;6.962;2023-10-08T07:56:07;18.30;99.90
5899;DHT22;2975;50.956;6.962;2023-10-08T07:58:34;18.30;99.90
5899;DHT22;2975;50.956;6.962;2023-10-08T08:01:07;18.30;99.90
5899;DHT22;2975;50.956;6.962;2023-10-08T08:03:35;18.30;99.90
5899;DHT22;2975;50.956;6.962;2023-10-08T08:06:03;18.30;99.90
5899;DHT22;2975;50.956;6.962;2023-10-08T08:08:32;18.60;99.90
5899;DHT22;2975;50.956;6.962;2023-10-08T08:11:08;18.60;99.90
5899;DHT22;2975;50.956;6.962;2023-10-08T08:13:38;18.70;99.90
5899;DHT22;2975;50.956;6.962;2023-10-08T08:16:05;18.70;99.90
5899;DHT22;2975;50.956;6.962;2023-10-08T08:18:47;18.70;99.90
5899;DHT22;2975;50.956;6.962;2023-10-08T08:21:14;18.60;99.90
5899;DHT22;2975;50.956;6.962;2023-10-08T08:23:44;18.60;99.90
5899;DHT22;2975;50.956;6.962;2023-10-08T08:26:14;18.30;99.90
5899;DHT22;2975;50.956;6.962;2023-10-08T08:28:58;18.30;99.90
5899;DHT22;2975;50.956;6.962;2023-10-08T08:31:27;18.30;99.90
5899;DHT22;2975;50.956;6.962;2023-10-08T08:33:57;18.40;99.90
5899;DHT22;2975;50.956;6.962;2023-10-08T08:36:28;18.40;99.90
5899;DHT22;2975;50.956;6.962;2023-10-08T08:38:54;18.30;99.90
5899;DHT22;2975;50.956;6.962;2023-10-08T08:41:21;18.50;99.90
5899;DHT22;2975;50.956;6.962;2023-10-08T08:43:53;18.70;99.90
5899;DHT22;2975;50.956;6.962;2023-10-08T08:46:31;18.80;99.90
5899;DHT22;2975;50.956;6.962;2023-10-08T08:49:01;18.90;99.90
5899;DHT22;2975;50.956;6.962;2023-10-08T08:51:28;19.00;99.90
5899;DHT22;2975;50.956;6.962;2023-10-08T08:53:55;18.80;99.90
5899;DHT22;2975;50.956;6.962;2023-10-08T08:56:21;18.90;99.90
5899;DHT22;2975;50.956;6.962;2023-10-08T08:58:49;18.80;99.90
5899;DHT22;2975;50.956;6.962;2023-10-08T09:01:16;18.70;99.90
5899;DHT22;2975;50.956;6.962;2023-10-08T09:03:43;18.70;99.90
5899;DHT22;2975;50.956;6.962;2023-10-08T09:06:09;18.80;99.90
5899;DHT22;2975;50.956;6.962;2023-10-08T09:08:35;19.00;99.90
5899;DHT22;2975;50.956;6.962;2023-10-08T09:11:02;18.90;99.90
5899;DHT22;2975;50.956;6.962;2023-10-08T09:13:31;19.00;99.90
5899;DHT22;2975;50.956;6.962;2023-10-08T09:16:17;19.20;99.90
5899;DHT22;2975;50.956;6.962;2023-10-08T09:18:44;19.20;99.90
5899;DHT22;2975;50.956;6.962;2023-10-08T09:21:13;19.30;99.90
5899;DHT22;2975;50.956;6.962;2023-10-08T09:23:43;19.30;99.90
5899;DHT22;2975;50.956;6.962;2023-10-08T09:26:10;19.50;99.90
5899;DHT22;2975;50.956;6.962;2023-10-08T09:28:37;19.60;99.90
5899;DHT22;2975;50.956;6.962;2023-10-08T09:31:04;19.80;99.90
5899;DHT22;2975;50.956;6.962;2023-10-08T09:33:32;19.90;99.90
5899;DHT22;2975;50.956;6.962;2023-10-08T09:35:59;19.90;99.90
5899;DHT22;2975;50.956;6.962;2023-10-08T09:38:30;20.20;99.90
5899;DHT22;2975;50.956;6.962;2023-10-08T09:40:57;20.40;99.90
5899;DHT22;2975;50.956;6.962;2023-10-08T09:43:23;20.30;99.90
5899;DHT22;2975;50.956;6.962;2023-10-08T09:46:13;20.40;99.90
5899;DHT22;2975;50.956;6.962;2023-10-08T09:48:41;20.20;99.90
5899;DHT22;2975;50.956;6.962;2023-10-08T09:51:11;20.30;99.90
5899;DHT22;2975;50.956;6.962;2023-10-08T09:56:28;20.20;99.90
5899;DHT22;2975;50.956;6.962;2023-10-08T09:58:54;20.10;99.90
5899;DHT22;2975;50.956;6.962;2023-10-08T10:01:20;20.30;99.90
5899;DHT22;2975;50.956;6.962;2023-10-08T10:03:47;20.50;99.90
5899;DHT22;2975;50.956;6.962;2023-10-08T10:06:15;20.80;99.90
5899;DHT22;2975;50.956;6.962;2023-10-08T10:08:43;20.90;99.90
5899;DHT22;2975;50.956;6.962;2023-10-08T10:11:09;21.10;99.90
5899;DHT22;2975;50.956;6.962;2023-10-08T10:13:44;21.20;99.90
5899;DHT22;2975;50.956;6.962;2023-10-08T10:16:11;21.10;99.90
5899;DHT22;2975;50.956;6.962;2023-10-08T10:18:39;20.90;99.90
5899;DHT22;2975;50.956;6.962;2023-10-08T10:23:40;20.90;99.90
5899;DHT22;2975;50.956;6.962;2023-10-08T10:26:30;20.80;99.90
5899;DHT22;2975;50.956;6.962;2023-10-08T10:31:40;21.10;99.90
5899;DHT22;2975;50.956;6.962;2023-10-08T10:34:12;21.10;99.90
5899;DHT22;2975;50.956;6.962;2023-10-08T10:36:40;21.20;99.90
5899;DHT22;2975;50.956;6.962;2023-10-08T10:39:06;21.40;99.90
5899;DHT22;2975;50.956;6.962;2023-10-08T10:41:46;21.60;99.60
5899;DHT22;2975;50.956;6.962;2023-10-08T10:44:15;21.80;99.10
5899;DHT22;2975;50.956;6.962;2023-10-08T10:46:45;21.80;98.90
5899;DHT22;2975;50.956;6.962;2023-10-08T10:49:20;21.90;99.40
5899;DHT22;2975;50.956;6.962;2023-10-08T10:51:57;22.00;99.30
5899;DHT22;2975;50.956;6.962;2023-10-08T10:54:23;21.80;98.60
5899;DHT22;2975;50.956;6.962;2023-10-08T10:56:50;21.70;99.10
5899;DHT22;2975;50.956;6.962;2023-10-08T10:59:34;21.80;99.00
5899;DHT22;2975;50.956;6.962;2023-10-08T11:02:06;21.80;98.90
5899;DHT22;2975;50.956;6.962;2023-10-08T11:04:47;21.90;99.10
5899;DHT22;2975;50.956;6.962;2023-10-08T11:07:22;22.10;99.20
5899;DHT22;2975;50.956;6.962;2023-10-08T11:09:50;22.50;98.20
5899;DHT22;2975;50.956;6.962;2023-10-08T11:12:18;22.50;98.00
5899;DHT22;2975;50.956;6.962;2023-10-08T11:14:49;22.40;98.10
5899;DHT22;2975;50.956;6.962;2023-10-08T11:17:23;22.30;98.20
5899;DHT22;2975;50.956;6.962;2023-10-08T11:19:49;22.40;98.60
5899;DHT22;2975;50.956;6.962;2023-10-08T11:22:17;22.60;98.50
5899;DHT22;2975;50.956;6.962;2023-10-08T11:24:45;22.70;98.20
5899;DHT22;2975;50.956;6.962;2023-10-08T11:27:17;22.60;98.40
5899;DHT22;2975;50.956;6.962;2023-10-08T11:29:45;22.60;98.50
5899;DHT22;2975;50.956;6.962;2023-10-08T11:32:12;22.80;98.30
5899;DHT22;2975;50.956;6.962;2023-10-08T11:34:38;22.80;97.90
5899;DHT22;2975;50.956;6.962;2023-10-08T11:37:05;22.70;97.70
5899;DHT22;2975;50.956;6.962;2023-10-08T11:39:46;22.50;98.60
5899;DHT22;2975;50.956;6.962;2023-10-08T11:42:11;22.50;98.80
5899;DHT22;2975;50.956;6.962;2023-10-08T11:44:55;22.50;98.60
5899;DHT22;2975;50.956;6.962;2023-10-08T11:47:25;22.40;98.80
5899;DHT22;2975;50.956;6.962;2023-10-08T11:49:56;22.30;99.00
5899;DHT22;2975;50.956;6.962;2023-10-08T11:52:43;22.40;99.30
5899;DHT22;2975;50.956;6.962;2023-10-08T11:55:09;22.50;99.10
5899;DHT22;2975;50.956;6.962;2023-10-08T11:57:35;22.70;97.90
5899;DHT22;2975;50.956;6.962;2023-10-08T12:00:02;22.80;97.50
5899;DHT22;2975;50.956;6.962;2023-10-08T12:02:43;22.50;98.40
5899;DHT22;2975;50.956;6.962;2023-10-08T12:05:09;22.40;98.10
5899;DHT22;2975;50.956;6.962;2023-10-08T12:07:47;22.00;98.30
5899;DHT22;2975;50.956;6.962;2023-10-08T12:10:20;21.90;99.30
5899;DHT22;2975;50.956;6.962;2023-10-08T12:12:52;21.80;99.40
5899;DHT22;2975;50.956;6.962;2023-10-08T12:15:21;21.90;99.20
5899;DHT22;2975;50.956;6.962;2023-10-08T12:17:50;21.90;99.00
5899;DHT22;2975;50.956;6.962;2023-10-08T12:20:38;21.80;99.70
5899;DHT22;2975;50.956;6.962;2023-10-08T12:23:04;21.90;99.90
5899;DHT22;2975;50.956;6.962;2023-10-08T12:25:31;21.60;99.90
5899;DHT22;2975;50.956;6.962;2023-10-08T12:27:59;21.40;99.90
5899;DHT22;2975;50.956;6.962;2023-10-08T12:30:28;21.30;99.90
5899;DHT22;2975;50.956;6.962;2023-10-08T12:32:56;21.20;99.90
5899;DHT22;2975;50.956;6.962;2023-10-08T12:35:23;21.30;99.90
5899;DHT22;2975;50.956;6.962;2023-10-08T12:37:50;21.30;99.90
5899;DHT22;2975;50.956;6.962;2023-10-08T12:40:15;21.40;99.90
5899;DHT22;2975;50.956;6.962;2023-10-08T12:42:53;21.50;99.90
5899;DHT22;2975;50.956;6.962;2023-10-08T12:45:20;21.60;99.90
5899;DHT22;2975;50.956;6.962;2023-10-08T12:47:49;21.60;99.90
5899;DHT22;2975;50.956;6.962;2023-10-08T12:50:19;21.40;99.90
5899;DHT22;2975;50.956;6.962;2023-10-08T12:53:11;21.20;99.90
5899;DHT22;2975;50.956;6.962;2023-10-08T12:55:40;21.30;99.90
5899;DHT22;2975;50.956;6.962;2023-10-08T12:58:08;21.40;99.90
5899;DHT22;2975;50.956;6.962;2023-10-08T13:00:40;21.40;99.90
5899;DHT22;2975;50.956;6.962;2023-10-08T13:03:08;21.40;99.90
5899;DHT22;2975;50.956;6.962;2023-10-08T13:05:41;21.40;99.90
5899;DHT22;2975;50.956;6.962;2023-10-08T13:08:10;21.50;99.90
5899;DHT22;2975;50.956;6.962;2023-10-08T13:10:39;21.60;99.90
5899;DHT22;2975;50.956;6.962;2023-10-08T13:13:06;21.60;99.90
5899;DHT22;2975;50.956;6.962;2023-10-08T13:15:32;21.50;99.90
5899;DHT22;2975;50.956;6.962;2023-10-08T13:18:01;21.40;99.90
5899;DHT22;2975;50.956;6.962;2023-10-08T13:20:29;21.30;99.90
5899;DHT22;2975;50.956;6.962;2023-10-08T13:22:59;21.30;99.90
5899;DHT22;2975;50.956;6.962;2023-10-08T13:25:25;21.30;99.90
5899;DHT22;2975;50.956;6.962;2023-10-08T13:27:51;21.40;99.90
5899;DHT22;2975;50.956;6.962;2023-10-08T13:30:18;21.50;99.90
5899;DHT22;2975;50.956;6.962;2023-10-08T13:32:43;21.70;99.90
5899;DHT22;2975;50.956;6.962;2023-10-08T13:35:11;21.80;99.90
5899;DHT22;2975;50.956;6.962;2023-10-08T13:37:36;21.70;99.90
5899;DHT22;2975;50.956;6.962;2023-10-08T13:40:02;21.60;99.90
5899;DHT22;2975;50.956;6.962;2023-10-08T13:42:28;21.40;99.90
5899;DHT22;2975;50.956;6.962;2023-10-08T13:44:55;21.40;99.90
5899;DHT22;2975;50.956;6.962;2023-10-08T13:47:23;21.30;99.90
5899;DHT22;2975;50.956;6.962;2023-10-08T13:49:52;21.30;99.90
5899;DHT22;2975;50.956;6.962;2023-10-08T13:52:19;21.30;99.90
5899;DHT22;2975;50.956;6.962;2023-10-08T13:54:48;21.50;99.90
5899;DHT22;2975;50.956;6.962;2023-10-08T13:57:19;21.50;99.90
5899;DHT22;2975;50.956;6.962;2023-10-08T13:59:48;21.60;99.90
5899;DHT22;2975;50.956;6.962;2023-10-08T14:02:16;21.60;99.90
5899;DHT22;2975;50.956;6.962;2023-10-08T14:04:47;21.50;99.90
5899;DHT22;2975;50.956;6.962;2023-10-08T14:07:16;21.50;99.90
5899;DHT22;2975;50.956;6.962;2023-10-08T14:09:42;21.60;99.90
5899;DHT22;2975;50.956;6.962;2023-10-08T14:12:10;21.50;99.90
5899;DHT22;2975;50.956;6.962;2023-10-08T14:14:36;21.60;99.90
5899;DHT22;2975;50.956;6.962;2023-10-08T14:17:07;21.60;99.90
5899;DHT22;2975;50.956;6.962;2023-10-08T14:19:35;21.70;99.90
5899;DHT22;2975;50.956;6.962;2023-10-08T14:22:17;21.90;99.90
5899;DHT22;2975;50.956;6.962;2023-10-08T14:24:47;21.80;99.90
5899;DHT22;2975;50.956;6.962;2023-10-08T14:27:12;21.70;99.90
5899;DHT22;2975;50.956;6.962;2023-10-08T14:29:41;21.50;99.90
5899;DHT22;2975;50.956;6.962;2023-10-08T14:32:10;21.30;99.90
5899;DHT22;2975;50.956;6.962;2023-10-08T14:34:36;21.20;99.90
5899;DHT22;2975;50.956;6.962;2023-10-08T14:37:21;21.10;99.90
5899;DHT22;2975;50.956;6.962;2023-10-08T14:40:06;21.00;99.90
5899;DHT22;2975;50.956;6.962;2023-10-08T14:42:50;20.90;99.90
5899;DHT22;2975;50.956;6.962;2023-10-08T14:45:26;20.90;99.90
5899;DHT22;2975;50.956;6.962;2023-10-08T14:47:53;21.00;99.90
5899;DHT22;2975;50.956;6.962;2023-10-08T14:50:20;21.00;99.90
5899;DHT22;2975;50.956;6.962;2023-10-08T14:52:47;21.00;99.90
5899;DHT22;2975;50.956;6.962;2023-10-08T14:55:13;21.00;99.90
5899;DHT22;2975;50.956;6.962;2023-10-08T14:57:39;20.90;99.90
5899;DHT22;2975;50.956;6.962;2023-10-08T15:00:06;20.70;99.90
5899;DHT22;2975;50.956;6.962;2023-10-08T15:02:35;20.50;99.90
5899;DHT22;2975;50.956;6.962;2023-10-08T15:05:05;20.40;99.90
5899;DHT22;2975;50.956;6.962;2023-10-08T15:07:31;20.20;99.90
5899;DHT22;2975;50.956;6.962;2023-10-08T15:09:58;20.10;99.90
5899;DHT22;2975;50.956;6.962;2023-10-08T15:12:26;20.00;99.90
5899;DHT22;2975;50.956;6.962;2023-10-08T15:14:52;20.00;99.90
5899;DHT22;2975;50.956;6.962;2023-10-08T15:17:18;20.10;99.90
5899;DHT22;2975;50.956;6.962;2023-10-08T15:19:43;20.30;99.90
5899;DHT22;2975;50.956;6.962;2023-10-08T15:22:09;20.40;99.90
5899;DHT22;2975;50.956;6.962;2023-10-08T15:24:35;20.40;99.90
5899;DHT22;2975;50.956;6.962;2023-10-08T15:27:02;20.50;99.90
5899;DHT22;2975;50.956;6.962;2023-10-08T15:29:27;20.40;99.90
5899;DHT22;2975;50.956;6.962;2023-10-08T15:31:54;20.40;99.90
5899;DHT22;2975;50.956;6.962;2023-10-08T15:34:20;20.40;99.90
5899;DHT22;2975;50.956;6.962;2023-10-08T15:36:46;20.30;99.90
5899;DHT22;2975;50.956;6.962;2023-10-08T15:39:12;20.30;99.90
5899;DHT22;2975;50.956;6.962;2023-10-08T15:41:38;20.20;99.90
5899;DHT22;2975;50.956;6.962;2023-10-08T15:44:05;20.10;99.90
5899;DHT22;2975;50.956;6.962;2023-10-08T15:46:32;20.00;99.90
5899;DHT22;2975;50.956;6.962;2023-10-08T15:49:00;19.90;99.90
5899;DHT22;2975;50.956;6.962;2023-10-08T15:51:30;19.80;99.90
5899;DHT22;2975;50.956;6.962;2023-10-08T15:54:00;19.70;99.90
5899;DHT22;2975;50.956;6.962;2023-10-08T15:56:26;19.60;99.90
5899;DHT22;2975;50.956;6.962;2023-10-08T15:58:53;19.60;99.90
5899;DHT22;2975;50.956;6.962;2023-10-08T16:01:19;19.60;99.90
5899;DHT22;2975;50.956;6.962;2023-10-08T16:03:45;19.50;99.90
5899;DHT22;2975;50.956;6.962;2023-10-08T16:06:10;19.50;99.90
5899;DHT22;2975;50.956;6.962;2023-10-08T16:08:36;19.60;99.90
5899;DHT22;2975;50.956;6.962;2023-10-08T16:11:02;19.50;99.90
5899;DHT22;2975;50.956;6.962;2023-10-08T16:13:27;19.50;99.90
5899;DHT22;2975;50.956;6.962;2023-10-08T16:15:53;19.40;99.90
5899;DHT22;2975;50.956;6.962;2023-10-08T16:18:18;19.40;99.90
5899;DHT22;2975;50.956;6.962;2023-10-08T16:20:46;19.30;99.90
5899;DHT22;2975;50.956;6.962;2023-10-08T16:23:13;19.20;99.90
5899;DHT22;2975;50.956;6.962;2023-10-08T16:25:39;19.10;99.90
5899;DHT22;2975;50.956;6.962;2023-10-08T16:28:05;19.00;99.90
5899;DHT22;2975;50.956;6.962;2023-10-08T16:30:31;19.00;99.90
5899;DHT22;2975;50.956;6.962;2023-10-08T16:32:59;18.90;99.90
5899;DHT22;2975;50.956;6.962;2023-10-08T16:35:26;18.80;99.90
5899;DHT22;2975;50.956;6.962;2023-10-08T16:37:53;18.70;99.90
5899;DHT22;2975;50.956;6.962;2023-10-08T16:40:19;18.50;99.90